Aviation Digital Data Service (ADDS)

Output produced by METARs form (1826 UTC 28 July 2014)
found at http://aviationweather.gov/adds/metars/
 
KBDL 281747Z 2818/2924 22010KT P6SM BKN040 
     FM281900 20010KT P6SM -SHRA BKN045 
     FM282200 22010KT P6SM BKN045 
     FM290500 28006KT P6SM BKN045 
     FM291100 28005KT P6SM SCT250